Time;durP1;ratioP1;P1;durP2;ratioP2;P2;SDS_P1;SDS_P2;PMS_P1;PMS_P2;Temp;Humidity;BMP_temperature;BMP_pressure;BME280_temperature;BME280_humidity;BME280_pressure;Samples;Min_cycle;Max_cycle;Signal;HPM_P1;HPM_P2
2021/07/19 00:02:17;;;;;;;1.90;1.50;;;;;;;19.57;83.11;101324.47;5052844;28;20449;-66
2021/07/19 00:04:45;;;;;;;2.87;1.20;;;;;;;19.52;83.76;101317.25;5052927;28;20489;-67
2021/07/19 00:07:12;;;;;;;4.23;1.40;;;;;;;19.51;83.64;101325.81;5052873;28;20495;-67
2021/07/19 00:09:44;;;;;;;3.33;1.60;;;;;;;19.38;83.09;101327.75;5055547;28;20446;-67
2021/07/19 00:12:12;;;;;;;2.50;1.20;;;;;;;19.44;83.78;101337.38;5056954;28;20799;-66
2021/07/19 00:14:39;;;;;;;2.43;1.27;;;;;;;19.44;83.42;101336.59;5056851;28;20466;-67
2021/07/19 00:17:06;;;;;;;2.90;1.73;;;;;;;19.37;83.72;101337.94;5056780;28;20450;-68
2021/07/19 00:19:33;;;;;;;3.87;1.50;;;;;;;19.41;83.99;101335.31;5056855;28;20496;-67
2021/07/19 00:21:59;;;;;;;4.60;1.60;;;;;;;19.33;84.36;101333.47;5056785;28;20454;-68
2021/07/19 00:24:26;;;;;;;1.83;1.13;;;;;;;19.31;84.79;101328.34;5056610;28;20794;-67
2021/07/19 00:26:52;;;;;;;1.87;1.40;;;;;;;19.32;84.66;101337.38;5056644;28;20438;-67
2021/07/19 00:29:19;;;;;;;1.50;1.40;;;;;;;19.31;84.80;101333.81;5056643;28;20445;-67
2021/07/19 00:31:45;;;;;;;3.20;1.53;;;;;;;19.26;84.83;101339.56;5056624;28;20496;-67
2021/07/19 00:34:13;;;;;;;3.13;2.00;;;;;;;19.26;85.46;101336.00;5056529;28;20446;-67
2021/07/19 00:36:40;;;;;;;1.43;1.33;;;;;;;19.20;84.60;101342.84;5056395;28;20458;-67
2021/07/19 00:39:08;;;;;;;1.90;1.60;;;;;;;19.22;84.18;101335.88;5056654;28;20441;-67
2021/07/19 00:41:35;;;;;;;3.90;1.93;;;;;;;19.22;83.63;101329.59;5056323;28;20997;-67
2021/07/19 00:44:02;;;;;;;1.63;1.37;;;;;;;19.21;83.40;101339.75;5056461;28;20442;-67
2021/07/19 00:46:28;;;;;;;1.53;1.13;;;;;;;19.15;83.39;101352.09;5056113;28;20489;-67
2021/07/19 00:48:55;;;;;;;3.70;1.93;;;;;;;19.07;83.17;101348.31;5055868;28;20446;-66
2021/07/19 00:51:22;;;;;;;2.73;1.40;;;;;;;19.05;82.71;101350.59;5056186;28;20564;-67
2021/07/19 00:53:49;;;;;;;3.13;2.00;;;;;;;18.97;83.18;101348.75;5056374;28;20442;-67
2021/07/19 00:56:17;;;;;;;2.43;1.80;;;;;;;18.82;82.59;101350.19;5069225;22;20544;-70
2021/07/19 00:58:48;;;;;;;2.87;1.50;;;;;;;18.67;82.98;101353.53;5036036;28;20820;-70
2021/07/19 01:01:17;;;;;;;3.93;1.83;;;;;;;18.60;83.11;101354.09;5036034;28;20435;-70
2021/07/19 01:03:45;;;;;;;3.20;2.23;;;;;;;18.54;83.37;101349.13;5035926;28;20453;-70
2021/07/19 01:06:12;;;;;;;2.60;1.70;;;;;;;18.51;83.20;101349.81;5044781;28;20481;-70
2021/07/19 01:08:41;;;;;;;3.67;1.50;;;;;;;18.46;83.69;101352.75;5055461;28;20448;-70
2021/07/19 01:11:07;;;;;;;2.30;2.10;;;;;;;18.42;84.19;101352.63;5055092;28;20458;-70
2021/07/19 01:13:34;;;;;;;3.30;1.30;;;;;;;18.33;84.55;101354.63;5055669;28;20450;-70
2021/07/19 01:16:00;;;;;;;3.10;2.20;;;;;;;18.21;84.14;101355.38;5055517;28;21002;-70
2021/07/19 01:18:27;;;;;;;5.03;1.90;;;;;;;18.13;84.27;101351.53;5055577;28;20446;-70
2021/07/19 01:21:30;;;;;;;3.07;1.97;;;;;;;18.01;84.99;101353.41;5055039;28;20954;-70
2021/07/19 01:24:25;;;;;;;3.67;1.37;;;;;;;17.93;85.08;101357.00;5055466;28;20926;-70
2021/07/19 01:27:19;;;;;;;2.40;1.53;;;;;;;17.90;85.48;101353.78;5055302;28;20498;-70
2021/07/19 01:29:48;;;;;;;4.67;1.63;;;;;;;17.89;85.34;101365.09;5055451;28;20422;-70
2021/07/19 01:32:15;;;;;;;2.67;1.53;;;;;;;17.80;85.22;101362.41;5055308;28;20445;-70
2021/07/19 01:34:43;;;;;;;2.60;1.60;;;;;;;17.80;85.72;101361.59;5055325;28;20442;-69
2021/07/19 01:37:11;;;;;;;2.30;1.70;;;;;;;17.81;86.34;101365.94;5055130;28;20457;-70
2021/07/19 01:39:39;;;;;;;3.30;2.13;;;;;;;17.77;84.94;101363.06;5055297;28;20453;-70
2021/07/19 01:42:06;;;;;;;2.27;1.43;;;;;;;17.70;85.04;101367.41;5055148;28;20453;-70
2021/07/19 01:44:33;;;;;;;4.83;2.10;;;;;;;17.62;84.45;101374.56;5054607;28;20465;-69
2021/07/19 01:47:06;;;;;;;4.20;1.87;;;;;;;17.58;84.44;101387.31;5054908;28;20569;-70
2021/07/19 01:49:33;;;;;;;2.60;1.70;;;;;;;17.62;84.38;101380.84;5054738;28;21135;-69
2021/07/19 01:52:00;;;;;;;2.43;1.60;;;;;;;17.65;83.74;101380.16;5054977;28;20496;-70
2021/07/19 01:54:27;;;;;;;2.57;1.40;;;;;;;17.63;83.12;101385.19;5059221;28;20977;-69
2021/07/19 01:56:54;;;;;;;2.47;1.70;;;;;;;17.59;82.26;101381.47;5054690;28;20470;-70
2021/07/19 01:59:21;;;;;;;1.87;1.43;;;;;;;17.60;82.26;101394.03;5054813;28;20442;-70
2021/07/19 02:01:49;;;;;;;3.00;1.50;;;;;;;17.62;82.04;101396.47;5054529;28;20934;-70
2021/07/19 02:04:17;;;;;;;2.03;1.30;;;;;;;17.51;82.41;101382.31;5054396;28;20832;-70
2021/07/19 02:06:43;;;;;;;2.93;1.40;;;;;;;17.50;82.28;101382.66;5054643;28;20489;-70
2021/07/19 02:09:12;;;;;;;3.90;1.60;;;;;;;17.50;82.77;101388.13;5054621;28;20449;-70
2021/07/19 02:11:38;;;;;;;3.20;1.70;;;;;;;17.52;82.75;101388.59;5054798;28;20465;-70
2021/07/19 02:14:08;;;;;;;1.60;1.40;;;;;;;17.58;83.02;101385.38;5054226;28;20942;-70
2021/07/19 02:16:38;;;;;;;3.90;1.67;;;;;;;17.58;82.77;101384.56;5054458;28;20457;-70
2021/07/19 02:19:06;;;;;;;4.83;2.00;;;;;;;17.50;82.72;101385.41;5053479;28;20469;-69
2021/07/19 02:21:34;;;;;;;3.30;1.90;;;;;;;17.41;82.95;101388.16;5054091;28;20442;-69
2021/07/19 02:24:02;;;;;;;4.87;1.97;;;;;;;17.32;83.35;101384.66;5054277;28;20442;-69
2021/07/19 02:26:30;;;;;;;1.17;1.07;;;;;;;17.22;84.66;101393.19;5054162;28;20571;-69
2021/07/19 02:28:57;;;;;;;2.93;2.13;;;;;;;17.10;84.65;101385.66;5054276;28;20446;-69
2021/07/19 02:31:24;;;;;;;1.53;0.97;;;;;;;17.12;84.09;101381.47;5053558;28;20453;-69
2021/07/19 02:33:52;;;;;;;1.77;1.20;;;;;;;17.14;85.24;101378.41;5054152;28;20450;-69
2021/07/19 02:36:20;;;;;;;1.70;1.40;;;;;;;17.16;84.86;101384.34;5054012;28;20462;-69
2021/07/19 02:38:49;;;;;;;3.47;1.43;;;;;;;17.06;84.17;101387.44;5054101;28;20446;-69
2021/07/19 02:41:19;;;;;;;1.90;1.27;;;;;;;17.02;84.34;101395.50;5053670;28;20814;-69
2021/07/19 02:43:47;;;;;;;2.23;1.27;;;;;;;16.98;84.83;101400.00;5053977;28;20451;-69
2021/07/19 02:46:14;;;;;;;3.00;1.10;;;;;;;16.97;83.99;101392.13;5053753;28;20482;-69
2021/07/19 02:48:43;;;;;;;2.87;1.43;;;;;;;16.89;83.19;101391.81;5053140;28;20878;-69
2021/07/19 02:51:14;;;;;;;3.27;1.87;;;;;;;16.80;82.75;101396.50;5053819;28;20450;-69
2021/07/19 02:53:41;;;;;;;2.67;1.60;;;;;;;16.62;83.21;101397.59;5053878;28;20466;-69
2021/07/19 02:56:09;;;;;;;3.80;1.20;;;;;;;16.53;84.14;101405.00;5053557;28;20477;-69
2021/07/19 02:58:36;;;;;;;1.90;1.20;;;;;;;16.54;84.34;101409.34;5053707;28;20491;-69
2021/07/19 03:01:05;;;;;;;2.70;1.70;;;;;;;16.53;83.93;101408.53;5053047;28;20541;-69
2021/07/19 03:03:35;;;;;;;1.60;1.07;;;;;;;16.36;83.32;101406.59;5053622;28;20868;-69
2021/07/19 03:06:04;;;;;;;2.53;1.20;;;;;;;16.29;83.40;101400.81;5052712;28;20494;-70
2021/07/19 03:08:34;;;;;;;3.27;1.53;;;;;;;16.26;82.77;101395.97;5053569;28;20446;-69
2021/07/19 03:11:04;;;;;;;1.93;1.37;;;;;;;16.27;82.47;101400.28;5053527;28;20493;-69
2021/07/19 03:13:33;;;;;;;1.53;1.07;;;;;;;16.12;82.57;101400.75;5053428;28;20422;-70
2021/07/19 03:16:00;;;;;;;3.53;1.20;;;;;;;16.10;82.12;101401.06;5053055;28;20963;-69
2021/07/19 03:18:28;;;;;;;2.53;1.03;;;;;;;16.06;82.45;101415.69;5053048;28;20442;-69
2021/07/19 03:20:55;;;;;;;2.57;1.27;;;;;;;16.04;82.70;101420.69;5053376;28;20445;-69
2021/07/19 03:23:27;;;;;;;2.40;1.60;;;;;;;16.07;82.65;101420.00;5053293;28;20469;-69
2021/07/19 03:25:54;;;;;;;2.50;1.20;;;;;;;16.06;83.35;101430.16;5053184;28;20901;-69
2021/07/19 03:28:21;;;;;;;3.00;1.40;;;;;;;16.02;82.30;101433.84;5053275;28;20435;-70
2021/07/19 03:30:52;;;;;;;2.33;1.50;;;;;;;15.99;81.68;101429.03;5053263;28;20445;-69
2021/07/19 03:33:19;;;;;;;6.97;1.10;;;;;;;15.99;82.66;101431.75;5053220;28;20449;-69
2021/07/19 03:35:46;;;;;;;1.67;0.97;;;;;;;16.07;82.14;101426.31;5053164;28;20473;-69
2021/07/19 03:38:14;;;;;;;7.77;1.13;;;;;;;16.08;81.87;101429.84;5053123;28;20442;-69
2021/07/19 03:40:41;;;;;;;2.70;1.30;;;;;;;16.13;82.30;101433.25;5053146;28;20431;-69
2021/07/19 03:43:09;;;;;;;3.07;1.70;;;;;;;16.17;81.47;101433.41;5052142;28;20512;-69
2021/07/19 03:45:36;;;;;;;1.13;0.83;;;;;;;16.18;80.97;101435.00;5052982;28;20474;-69
2021/07/19 03:48:05;;;;;;;5.57;1.13;;;;;;;16.20;81.55;101443.69;5053091;28;20430;-69
2021/07/19 03:50:33;;;;;;;2.90;1.40;;;;;;;16.17;81.01;101443.53;5056829;28;20437;-69
2021/07/19 03:53:00;;;;;;;4.83;1.37;;;;;;;16.17;81.49;101441.63;5053061;28;20449;-70
2021/07/19 03:55:27;;;;;;;12.47;1.37;;;;;;;16.20;80.62;101440.16;5052620;28;20524;-70
2021/07/19 03:57:54;;;;;;;2.13;1.20;;;;;;;16.19;80.68;101442.09;5052725;28;20427;-69
2021/07/19 04:00:21;;;;;;;2.57;1.20;;;;;;;16.21;81.29;101442.59;5052903;28;20438;-70
2021/07/19 04:02:50;;;;;;;8.73;1.50;;;;;;;16.23;80.46;101450.47;5052948;28;20544;-69
2021/07/19 04:05:21;;;;;;;5.13;1.50;;;;;;;16.24;80.66;101443.88;5052840;28;20491;-69
2021/07/19 04:07:49;;;;;;;1.23;1.13;;;;;;;16.21;81.17;101442.59;5052910;28;20573;-69
2021/07/19 04:10:17;;;;;;;1.90;1.37;;;;;;;16.19;80.20;101444.81;5052505;28;20939;-69
2021/07/19 04:12:46;;;;;;;3.07;1.27;;;;;;;16.18;80.28;101447.88;5052827;28;20453;-69
2021/07/19 04:15:13;;;;;;;8.20;1.10;;;;;;;16.19;80.53;101449.47;5052696;28;20434;-69
2021/07/19 04:17:40;;;;;;;7.73;1.17;;;;;;;16.10;80.75;101444.78;5052757;28;20439;-69
2021/07/19 04:20:10;;;;;;;3.17;1.47;;;;;;;16.09;79.95;101451.38;5052758;28;20832;-69
2021/07/19 04:22:38;;;;;;;1.90;1.40;;;;;;;16.13;80.63;101448.84;5052755;28;20465;-69
2021/07/19 04:25:07;;;;;;;2.93;1.10;;;;;;;16.19;81.05;101446.75;5052901;28;20438;-68
2021/07/19 04:27:35;;;;;;;1.77;0.80;;;;;;;16.23;81.41;101459.47;5052274;28;20478;-69
2021/07/19 04:30:01;;;;;;;1.50;1.20;;;;;;;16.18;79.81;101458.81;5052729;28;20943;-68
2021/07/19 04:32:28;;;;;;;5.80;1.10;;;;;;;16.14;79.43;101453.97;5052629;28;20445;-68
2021/07/19 04:34:54;;;;;;;3.57;1.00;;;;;;;16.11;79.74;101451.06;5052629;28;20453;-69
2021/07/19 04:37:21;;;;;;;2.50;2.00;;;;;;;16.12;80.33;101452.69;5052485;28;20461;-69
2021/07/19 04:39:49;;;;;;;6.23;1.70;;;;;;;16.05;79.85;101450.41;5052637;28;20445;-70
2021/07/19 04:42:15;;;;;;;9.53;1.00;;;;;;;16.05;80.89;101449.59;5052561;28;20866;-69
2021/07/19 04:44:42;;;;;;;1.70;0.90;;;;;;;16.12;81.29;101458.16;5052545;28;20450;-69
2021/07/19 04:47:08;;;;;;;11.33;1.53;;;;;;;16.11;80.52;101459.25;5052325;28;20490;-69
2021/07/19 04:49:37;;;;;;;4.10;1.23;;;;;;;16.14;81.12;101464.91;5052228;28;20958;-70
2021/07/19 04:52:04;;;;;;;1.60;1.07;;;;;;;16.15;80.55;101461.03;5052458;28;20450;-70
2021/07/19 04:54:37;;;;;;;3.23;1.10;;;;;;;16.18;80.64;101459.63;5053178;28;20445;-69
2021/07/19 04:57:09;;;;;;;1.43;1.17;;;;;;;16.13;80.32;101457.84;5055818;28;20470;-67
2021/07/19 04:59:40;;;;;;;2.93;1.37;;;;;;;16.10;81.33;101463.94;5055742;28;20794;-70
2021/07/19 05:02:11;;;;;;;4.50;1.03;;;;;;;16.08;80.51;101457.97;5055963;28;20477;-77
2021/07/19 05:04:39;;;;;;;2.80;1.30;;;;;;;16.22;80.67;101466.06;5055915;28;20435;-71
2021/07/19 05:07:06;;;;;;;10.73;1.30;;;;;;;16.24;80.57;101463.81;5055666;28;20486;-71
2021/07/19 05:09:34;;;;;;;1.80;1.23;;;;;;;16.31;80.46;101469.63;5055807;28;20446;-72
2021/07/19 05:12:02;;;;;;;1.90;1.73;;;;;;;16.32;79.53;101464.97;5055755;28;20442;-72
2021/07/19 05:14:30;;;;;;;4.33;1.50;;;;;;;16.27;79.35;101468.66;5055659;28;20465;-71
2021/07/19 05:16:58;;;;;;;2.13;0.90;;;;;;;16.12;79.34;101472.63;5055567;28;20455;-71
2021/07/19 05:19:25;;;;;;;8.20;1.50;;;;;;;16.19;79.70;101460.41;5055594;28;20447;-71
2021/07/19 05:21:51;;;;;;;1.20;0.87;;;;;;;16.33;80.21;101466.56;5055240;28;20796;-72
2021/07/19 05:24:18;;;;;;;3.87;1.27;;;;;;;16.28;79.70;101478.44;5055488;28;20810;-71
2021/07/19 05:26:45;;;;;;;5.13;1.10;;;;;;;16.35;79.75;101478.00;5055338;28;20485;-71
2021/07/19 05:29:11;;;;;;;11.83;2.13;;;;;;;16.34;79.29;101470.94;5055428;28;20447;-71
2021/07/19 05:31:39;;;;;;;2.77;1.47;;;;;;;16.47;79.21;101471.91;5055369;28;20442;-72
2021/07/19 05:34:06;;;;;;;1.27;0.87;;;;;;;16.47;78.91;101470.00;5055270;28;20451;-71
2021/07/19 05:36:33;;;;;;;3.50;1.47;;;;;;;16.53;78.13;101476.09;5054889;28;20458;-69
2021/07/19 05:38:59;;;;;;;2.73;1.40;;;;;;;16.53;77.72;101487.06;5055253;28;20474;-69
2021/07/19 05:41:25;;;;;;;8.90;1.37;;;;;;;16.52;77.97;101482.72;5054850;28;20943;-69
2021/07/19 05:43:52;;;;;;;3.30;1.27;;;;;;;16.47;77.61;101475.47;5055122;28;20998;-69
2021/07/19 05:46:18;;;;;;;1.80;1.20;;;;;;;16.48;77.84;101479.00;5059084;28;20604;-69
2021/07/19 05:48:46;;;;;;;4.23;1.60;;;;;;;16.53;78.11;101474.19;5055073;28;20446;-69
2021/07/19 05:51:12;;;;;;;1.53;0.90;;;;;;;16.53;78.96;101476.09;5054960;28;20442;-69
2021/07/19 05:53:39;;;;;;;1.77;1.20;;;;;;;16.63;78.81;101476.59;5055038;28;20438;-68
2021/07/19 05:56:05;;;;;;;2.13;1.13;;;;;;;16.70;77.57;101483.53;5054624;28;20474;-69
2021/07/19 05:58:32;;;;;;;5.50;2.10;;;;;;;16.84;77.41;101481.47;5055145;28;20448;-69
2021/07/19 06:00:59;;;;;;;5.37;1.70;;;;;;;16.90;76.95;101481.00;5054877;28;20442;-69
2021/07/19 06:03:25;;;;;;;5.13;2.10;;;;;;;17.00;77.21;101484.53;5054714;28;20446;-69
2021/07/19 06:05:53;;;;;;;2.70;1.40;;;;;;;17.10;78.15;101495.19;5053870;28;20553;-70
2021/07/19 06:08:20;;;;;;;1.93;1.60;;;;;;;17.27;76.35;101486.94;5053964;28;21052;-69
2021/07/19 06:10:46;;;;;;;4.63;1.53;;;;;;;17.33;74.73;101482.09;5054492;28;20446;-70
2021/07/19 06:13:13;;;;;;;2.70;1.20;;;;;;;17.36;74.36;101490.47;5054528;28;20445;-70
2021/07/19 06:15:39;;;;;;;3.13;1.03;;;;;;;17.35;74.33;101491.63;5054421;28;20454;-69
2021/07/19 06:18:06;;;;;;;2.77;1.30;;;;;;;17.31;73.81;101492.56;5054426;28;20450;-69
2021/07/19 06:20:32;;;;;;;4.97;2.20;;;;;;;17.30;74.17;101491.75;5054444;28;20858;-69
2021/07/19 06:23:02;;;;;;;2.23;1.37;;;;;;;17.22;74.80;101484.38;5054408;28;20449;-69
2021/07/19 06:25:29;;;;;;;3.70;1.53;;;;;;;17.30;75.51;101483.53;5054309;28;20531;-70
2021/07/19 06:27:56;;;;;;;2.87;1.90;;;;;;;17.44;74.86;101488.84;5054249;28;20486;-70
2021/07/19 06:30:23;;;;;;;2.37;0.93;;;;;;;17.47;74.01;101485.44;5053946;28;20970;-71
2021/07/19 06:32:49;;;;;;;6.53;2.07;;;;;;;17.49;73.97;101496.91;5053914;28;20446;-70
2021/07/19 06:35:16;;;;;;;3.33;1.37;;;;;;;17.50;73.88;101481.28;5054039;28;20453;-70
2021/07/19 06:37:42;;;;;;;5.30;1.57;;;;;;;17.48;73.07;101489.00;5054142;28;20445;-70
2021/07/19 06:40:11;;;;;;;5.77;2.93;;;;;;;17.45;73.30;101493.22;5053734;28;20451;-70
2021/07/19 06:42:38;;;;;;;2.60;1.40;;;;;;;17.44;72.96;101479.81;5054026;28;20446;-69
2021/07/19 06:45:06;;;;;;;1.83;1.20;;;;;;;17.50;73.13;101492.22;5053971;28;20449;-69
2021/07/19 06:47:33;;;;;;;3.50;1.30;;;;;;;17.51;73.21;101488.34;5053547;28;20860;-70
2021/07/19 06:49:59;;;;;;;2.13;1.83;;;;;;;17.50;73.29;101484.00;5053892;28;20792;-70
2021/07/19 06:52:26;;;;;;;8.87;1.80;;;;;;;17.50;73.18;101482.06;5053519;28;20825;-70
2021/07/19 06:54:53;;;;;;;4.07;1.80;;;;;;;17.62;73.36;101484.16;5053788;28;20488;-70
2021/07/19 06:57:21;;;;;;;6.27;1.77;;;;;;;17.74;71.50;101488.97;5054507;28;20871;-70
2021/07/19 06:59:48;;;;;;;5.80;1.70;;;;;;;17.88;71.59;101487.66;5053445;28;20797;-70
2021/07/19 07:02:15;;;;;;;3.53;1.50;;;;;;;18.07;71.95;101483.69;5053829;28;20450;-70
2021/07/19 07:04:42;;;;;;;6.10;2.30;;;;;;;18.15;70.53;101488.34;5053671;28;20442;-70
2021/07/19 07:07:09;;;;;;;2.17;1.40;;;;;;;18.12;69.80;101476.06;5053482;28;20522;-70
2021/07/19 07:09:35;;;;;;;3.13;1.40;;;;;;;18.07;69.28;101483.69;5053838;28;20813;-69
2021/07/19 07:12:01;;;;;;;2.50;1.47;;;;;;;17.92;69.31;101486.97;5053615;28;20446;-70
2021/07/19 07:14:29;;;;;;;2.53;1.53;;;;;;;18.04;69.37;101495.31;5053130;28;20954;-70
2021/07/19 07:16:56;;;;;;;4.90;1.30;;;;;;;18.17;69.95;101486.06;5053271;28;20453;-70
2021/07/19 07:19:23;;;;;;;5.03;2.20;;;;;;;18.29;69.86;101488.09;5053559;28;20460;-69
2021/07/19 07:21:49;;;;;;;2.00;1.40;;;;;;;18.35;69.49;101484.81;5053492;28;20446;-69
2021/07/19 07:24:16;;;;;;;3.40;2.13;;;;;;;18.41;69.31;101483.47;5053300;28;20810;-70
2021/07/19 07:26:42;;;;;;;2.53;1.30;;;;;;;18.45;68.16;101477.34;5053131;28;20536;-70
2021/07/19 07:29:09;;;;;;;3.13;1.80;;;;;;;18.41;67.08;101493.66;5053200;28;20438;-70
2021/07/19 07:31:37;;;;;;;2.93;1.73;;;;;;;18.51;66.75;101484.25;5053222;28;20445;-69
2021/07/19 07:34:05;;;;;;;7.23;1.90;;;;;;;18.62;67.50;101475.28;5053192;28;20447;-69
2021/07/19 07:36:33;;;;;;;2.03;1.20;;;;;;;18.78;66.47;101486.50;5053103;28;20476;-70
2021/07/19 07:39:00;;;;;;;3.03;1.60;;;;;;;18.91;66.67;101484.66;5052901;28;20950;-70
2021/07/19 07:41:28;;;;;;;2.67;1.60;;;;;;;19.04;67.56;101485.50;5055719;28;20525;-70
2021/07/19 07:43:55;;;;;;;3.60;1.53;;;;;;;19.23;67.15;101479.53;5053616;28;20478;-71
2021/07/19 07:46:23;;;;;;;4.27;1.93;;;;;;;19.33;67.74;101484.59;5052951;28;20470;-70
2021/07/19 07:48:52;;;;;;;3.80;1.97;;;;;;;19.35;68.05;101474.88;5052941;28;20477;-69
2021/07/19 07:51:18;;;;;;;3.53;1.80;;;;;;;19.28;64.74;101469.13;5053005;28;20442;-69
2021/07/19 07:53:45;;;;;;;2.77;1.87;;;;;;;19.26;65.92;101479.66;5053023;28;20454;-69
2021/07/19 07:56:11;;;;;;;3.20;1.73;;;;;;;19.19;64.22;101478.59;5052763;28;20478;-70
2021/07/19 07:58:38;;;;;;;9.90;2.07;;;;;;;19.27;66.37;101477.69;5052954;28;20435;-70
2021/07/19 08:01:05;;;;;;;3.40;1.77;;;;;;;19.46;66.44;101469.75;5052543;28;20935;-70
2021/07/19 08:03:31;;;;;;;4.70;2.73;;;;;;;19.55;64.55;101469.66;5052813;28;20443;-70
2021/07/19 08:05:59;;;;;;;2.60;1.83;;;;;;;19.46;64.15;101463.44;5052648;28;20469;-70
2021/07/19 08:08:26;;;;;;;4.07;1.20;;;;;;;19.35;64.15;101463.09;5052571;28;20892;-70
2021/07/19 08:10:52;;;;;;;10.90;1.70;;;;;;;19.12;65.65;101466.22;5052706;28;20481;-70
2021/07/19 08:13:19;;;;;;;5.10;2.07;;;;;;;19.14;65.90;101461.16;5052535;28;20442;-70
2021/07/19 08:15:47;;;;;;;4.07;1.33;;;;;;;19.10;67.33;101456.69;5052581;28;20469;-70
2021/07/19 08:18:14;;;;;;;3.97;1.93;;;;;;;18.94;67.39;101455.69;5052565;28;20438;-70
2021/07/19 08:20:41;;;;;;;6.73;1.80;;;;;;;18.94;67.06;101447.47;5052133;28;20943;-71
2021/07/19 08:23:08;;;;;;;3.50;1.33;;;;;;;18.92;67.89;101449.75;5052571;28;20450;-72
2021/07/19 08:25:35;;;;;;;5.53;2.00;;;;;;;19.04;67.89;101456.09;5052549;28;20473;-72
2021/07/19 08:28:01;;;;;;;2.40;1.20;;;;;;;19.02;66.31;101449.34;5052320;28;20493;-72
2021/07/19 08:30:28;;;;;;;2.87;1.60;;;;;;;19.03;66.94;101448.97;5054929;28;20438;-73
2021/07/19 08:32:54;;;;;;;3.23;1.53;;;;;;;19.21;65.81;101460.59;5056554;28;20457;-72
2021/07/19 08:35:20;;;;;;;5.77;1.43;;;;;;;19.30;64.82;101461.34;5056168;28;20924;-73
2021/07/19 08:37:49;;;;;;;4.13;2.13;;;;;;;19.29;63.90;101465.22;5056347;28;20442;-72
2021/07/19 08:40:20;;;;;;;3.70;1.60;;;;;;;19.48;63.83;101461.97;5056222;28;20441;-73
2021/07/19 08:42:47;;;;;;;2.93;1.47;;;;;;;19.62;64.22;101458.94;5056410;28;20434;-72
2021/07/19 08:45:14;;;;;;;2.30;1.60;;;;;;;19.60;64.15;101461.19;5056379;28;20445;-73
2021/07/19 08:47:42;;;;;;;4.83;1.60;;;;;;;19.75;64.89;101457.81;5055839;28;20482;-72
2021/07/19 08:50:10;;;;;;;2.03;1.37;;;;;;;19.68;63.90;101457.56;5056102;28;20446;-72
2021/07/19 08:52:37;;;;;;;3.17;1.30;;;;;;;19.84;63.55;101452.22;5055895;28;20955;-73
2021/07/19 08:55:05;;;;;;;5.40;1.40;;;;;;;19.89;62.40;101461.03;5056139;28;20475;-72
2021/07/19 08:57:33;;;;;;;2.30;1.40;;;;;;;19.99;61.83;101457.03;5055754;28;20991;-73
2021/07/19 09:00:05;;;;;;;3.20;1.80;;;;;;;20.05;60.99;101449.34;5056053;28;20435;-72
2021/07/19 09:02:31;;;;;;;3.10;1.30;;;;;;;20.10;61.07;101451.88;5056054;28;20433;-73
2021/07/19 09:04:59;;;;;;;5.70;1.70;;;;;;;19.96;61.84;101454.16;5055852;28;20442;-72
2021/07/19 09:07:25;;;;;;;5.03;2.13;;;;;;;19.97;61.91;101456.56;5055735;28;20491;-73
2021/07/19 09:09:53;;;;;;;3.60;2.50;;;;;;;19.88;62.01;101451.19;5055875;28;20438;-73
2021/07/19 09:12:31;;;;;;;2.20;1.67;;;;;;;19.70;62.15;101449.78;5055360;28;20938;-72
2021/07/19 09:14:59;;;;;;;1.47;0.87;;;;;;;19.75;63.32;101452.31;5055782;28;20458;-72
2021/07/19 09:17:27;;;;;;;3.00;1.13;;;;;;;19.71;63.29;101451.41;5055189;28;20975;-70
2021/07/19 09:19:56;;;;;;;3.13;1.60;;;;;;;19.90;63.77;101442.56;5055565;28;20442;-71
2021/07/19 09:22:25;;;;;;;4.20;2.20;;;;;;;20.06;62.76;101439.97;5055563;28;20537;-72
2021/07/19 09:24:52;;;;;;;5.67;2.13;;;;;;;20.02;62.32;101456.34;5055430;28;20959;-72
2021/07/19 09:27:20;;;;;;;3.60;2.20;;;;;;;19.91;62.28;101453.22;5055256;28;20470;-73
2021/07/19 09:29:46;;;;;;;4.50;1.87;;;;;;;19.59;61.15;101448.59;5055463;28;20450;-72
2021/07/19 09:32:14;;;;;;;4.57;1.80;;;;;;;19.63;63.35;101452.28;5055341;28;20443;-73
2021/07/19 09:34:42;;;;;;;3.33;1.53;;;;;;;19.81;63.33;101450.13;5055303;28;20438;-73
2021/07/19 09:37:13;;;;;;;3.20;1.80;;;;;;;19.95;64.17;101447.03;5055152;28;20462;-73
2021/07/19 09:39:43;;;;;;;4.00;1.60;;;;;;;19.97;63.12;101447.53;5058563;28;20430;-73
2021/07/19 09:42:12;;;;;;;2.50;1.50;;;;;;;20.16;61.83;101447.75;5057278;28;20784;-73
2021/07/19 09:44:38;;;;;;;2.00;1.40;;;;;;;20.23;60.93;101445.22;5055076;28;20450;-73
2021/07/19 09:47:07;;;;;;;2.10;1.30;;;;;;;20.15;60.66;101435.13;5054822;28;20470;-73
2021/07/19 09:49:36;;;;;;;8.83;2.00;;;;;;;20.35;61.41;101442.44;5054499;28;20496;-72
2021/07/19 09:52:06;;;;;;;2.60;1.40;;;;;;;20.56;61.12;101444.28;5055049;28;20473;-72
2021/07/19 09:54:35;;;;;;;4.57;1.67;;;;;;;20.55;60.69;101434.41;5054993;28;20454;-73
2021/07/19 09:57:02;;;;;;;13.83;1.60;;;;;;;20.36;62.03;101438.56;5054455;28;20477;-73
2021/07/19 09:59:29;;;;;;;4.13;2.27;;;;;;;20.39;61.29;101443.34;5054920;28;20446;-73
2021/07/19 10:01:56;;;;;;;3.93;1.93;;;;;;;20.18;60.59;101442.69;5054826;28;20438;-73
2021/07/19 10:04:22;;;;;;;2.63;1.60;;;;;;;20.13;61.67;101440.97;5054869;28;20858;-72
2021/07/19 10:06:51;;;;;;;3.67;1.90;;;;;;;20.08;62.39;101440.41;5054460;28;20536;-72
2021/07/19 10:09:19;;;;;;;3.53;1.50;;;;;;;19.99;63.00;101445.22;5054696;28;20485;-72
2021/07/19 10:11:49;;;;;;;3.30;1.70;;;;;;;19.88;64.78;101450.38;5054819;28;20451;-73
2021/07/19 10:14:25;;;;;;;4.17;1.70;;;;;;;19.76;65.14;101453.13;5054672;28;20453;-73
2021/07/19 10:16:52;;;;;;;4.40;1.57;;;;;;;19.64;66.98;101457.44;5054797;28;20541;-72
2021/07/19 10:19:20;;;;;;;3.60;2.03;;;;;;;19.51;67.94;101452.22;5054455;28;20446;-72
2021/07/19 10:21:46;;;;;;;6.50;1.63;;;;;;;19.47;66.50;101452.09;5054738;28;20450;-72
2021/07/19 10:24:14;;;;;;;1.90;1.20;;;;;;;19.55;66.72;101455.91;5054364;28;20445;-73
2021/07/19 10:26:40;;;;;;;2.20;1.10;;;;;;;19.62;66.88;101459.75;5054182;28;20979;-72
2021/07/19 10:29:08;;;;;;;1.73;1.23;;;;;;;19.88;65.28;101456.69;5054100;28;20858;-72
2021/07/19 10:31:35;;;;;;;4.67;1.20;;;;;;;20.02;65.14;101459.09;5054012;28;20497;-72
2021/07/19 10:34:05;;;;;;;2.57;1.37;;;;;;;20.20;62.43;101458.84;5054200;28;20950;-72
2021/07/19 10:36:35;;;;;;;2.90;1.63;;;;;;;20.33;62.22;101450.25;5054079;28;20462;-69
2021/07/19 10:39:15;;;;;;;3.50;1.50;;;;;;;20.59;62.83;101458.16;5054137;28;20442;-72
2021/07/19 10:41:41;;;;;;;3.83;1.20;;;;;;;20.74;61.01;101455.81;5054102;28;20813;-72
2021/07/19 10:44:11;;;;;;;2.63;1.57;;;;;;;20.85;62.32;101459.66;5054005;28;20445;-73
2021/07/19 10:46:38;;;;;;;1.93;1.00;;;;;;;20.90;63.67;101448.41;5053603;28;20877;-72
2021/07/19 10:49:10;;;;;;;2.40;0.97;;;;;;;20.94;60.42;101451.25;5053817;28;20509;-73
2021/07/19 10:51:42;;;;;;;6.37;1.97;;;;;;;21.08;61.32;101454.44;5031008;28;20936;-75
2021/07/19 10:54:14;;;;;;;1.93;1.13;;;;;;;21.01;60.22;101459.72;5030116;28;20553;-73
2021/07/19 10:56:40;;;;;;;3.93;1.77;;;;;;;21.04;59.85;101453.53;5032435;28;20839;-72
2021/07/19 10:59:07;;;;;;;1.67;1.17;;;;;;;21.17;61.80;101444.06;5032844;28;20857;-74
2021/07/19 11:01:33;;;;;;;1.33;1.07;;;;;;;21.28;61.37;101444.31;5031578;28;20443;-73
2021/07/19 11:04:02;;;;;;;1.50;1.40;;;;;;;21.59;61.08;101449.13;5020673;28;20451;-74
2021/07/19 11:06:33;;;;;;;1.53;1.00;;;;;;;21.62;58.61;101448.41;5031964;28;20463;-73
2021/07/19 11:09:02;;;;;;;2.33;0.80;;;;;;;21.80;57.89;101446.09;5032738;28;20487;-73
2021/07/19 11:11:33;;;;;;;1.50;1.20;;;;;;;21.94;57.85;101442.88;5029765;28;20454;-73
2021/07/19 11:14:02;;;;;;;1.97;1.00;;;;;;;22.10;58.29;101435.41;5017432;28;20456;-73
2021/07/19 11:16:39;;;;;;;1.40;1.07;;;;;;;22.27;58.59;101437.81;5013751;28;20484;-73
2021/07/19 11:19:05;;;;;;;3.33;1.80;;;;;;;22.29;56.57;101448.47;5013757;28;20436;-72
2021/07/19 11:21:33;;;;;;;5.17;2.47;;;;;;;22.02;56.66;101442.69;5013340;28;20949;-73
2021/07/19 11:24:08;;;;;;;3.40;1.47;;;;;;;21.60;58.42;101436.91;5013155;28;20455;-73
2021/07/19 11:26:49;;;;;;;1.73;1.27;;;;;;;21.30;59.70;101442.84;5013380;28;20514;-72
2021/07/19 11:29:27;;;;;;;2.53;1.20;;;;;;;21.17;59.79;101439.34;5013026;28;20471;-72